sensor_id;sensor_type;location;lat;lon;timestamp;P1;durP1;ratioP1;P2;durP2;ratioP2
30462;SDS011;17256;43.618;25.336;2022-08-02T00:37:21;1.77;;;1.67;;
30462;SDS011;17256;43.618;25.336;2022-08-02T00:41:11;4.63;;;1.77;;
30462;SDS011;17256;43.618;25.336;2022-08-02T00:55:24;1.93;;;1.60;;
30462;SDS011;17256;43.618;25.336;2022-08-02T00:58:36;2.13;;;1.70;;
30462;SDS011;17256;43.618;25.336;2022-08-02T01:37:41;1.80;;;1.70;;
30462;SDS011;17256;43.618;25.336;2022-08-02T01:43:19;2.37;;;1.90;;
30462;SDS011;17256;43.618;25.336;2022-08-02T01:49:29;1.50;;;1.40;;
30462;SDS011;17256;43.618;25.336;2022-08-02T01:55:39;2.80;;;1.80;;
30462;SDS011;17256;43.618;25.336;2022-08-02T01:58:47;3.03;;;2.00;;
30462;SDS011;17256;43.618;25.336;2022-08-02T02:04:10;2.60;;;1.70;;
30462;SDS011;17256;43.618;25.336;2022-08-02T02:10:21;2.37;;;1.53;;
30462;SDS011;17256;43.618;25.336;2022-08-02T02:13:16;3.13;;;1.80;;
30462;SDS011;17256;43.618;25.336;2022-08-02T02:15:54;2.67;;;1.70;;
30462;SDS011;17256;43.618;25.336;2022-08-02T02:25:33;1.77;;;1.63;;
30462;SDS011;17256;43.618;25.336;2022-08-02T02:28:24;1.60;;;1.50;;
30462;SDS011;17256;43.618;25.336;2022-08-02T02:35:57;2.00;;;1.80;;
30462;SDS011;17256;43.618;25.336;2022-08-02T02:51:54;1.73;;;1.60;;
30462;SDS011;17256;43.618;25.336;2022-08-02T03:49:43;4.07;;;3.30;;
30462;SDS011;17256;43.618;25.336;2022-08-02T03:52:12;4.40;;;2.80;;
30462;SDS011;17256;43.618;25.336;2022-08-02T04:01:30;2.90;;;2.67;;
30462;SDS011;17256;43.618;25.336;2022-08-02T04:04:33;3.77;;;3.20;;
30462;SDS011;17256;43.618;25.336;2022-08-02T04:08:28;2.83;;;2.63;;
30462;SDS011;17256;43.618;25.336;2022-08-02T04:41:07;3.40;;;3.10;;
30462;SDS011;17256;43.618;25.336;2022-08-02T04:45:15;4.80;;;3.23;;
30462;SDS011;17256;43.618;25.336;2022-08-02T04:55:42;5.27;;;3.03;;
30462;SDS011;17256;43.618;25.336;2022-08-02T04:58:42;5.83;;;3.00;;
30462;SDS011;17256;43.618;25.336;2022-08-02T05:05:41;8.93;;;3.73;;
30462;SDS011;17256;43.618;25.336;2022-08-02T05:09:48;6.80;;;3.63;;
30462;SDS011;17256;43.618;25.336;2022-08-02T06:30:47;3.90;;;3.60;;
30462;SDS011;17256;43.618;25.336;2022-08-02T06:49:54;4.60;;;4.30;;
30462;SDS011;17256;43.618;25.336;2022-08-02T06:55:56;3.43;;;3.13;;
30462;SDS011;17256;43.618;25.336;2022-08-02T06:58:42;3.20;;;3.00;;
30462;SDS011;17256;43.618;25.336;2022-08-02T07:13:09;2.70;;;2.50;;
30462;SDS011;17256;43.618;25.336;2022-08-02T07:15:41;2.50;;;2.10;;
30462;SDS011;17256;43.618;25.336;2022-08-02T07:18:07;5.33;;;2.30;;
30462;SDS011;17256;43.618;25.336;2022-08-02T07:20:37;2.60;;;2.40;;
30462;SDS011;17256;43.618;25.336;2022-08-02T07:23:03;2.23;;;2.03;;
30462;SDS011;17256;43.618;25.336;2022-08-02T07:29:23;2.83;;;2.60;;
30462;SDS011;17256;43.618;25.336;2022-08-02T07:31:48;3.10;;;1.90;;
30462;SDS011;17256;43.618;25.336;2022-08-02T07:34:14;4.73;;;2.30;;
30462;SDS011;17256;43.618;25.336;2022-08-02T07:40:35;5.30;;;2.00;;
30462;SDS011;17256;43.618;25.336;2022-08-02T07:43:00;5.57;;;2.00;;
30462;SDS011;17256;43.618;25.336;2022-08-02T07:45:26;2.43;;;2.23;;
30462;SDS011;17256;43.618;25.336;2022-08-02T07:47:52;3.70;;;2.57;;
30462;SDS011;17256;43.618;25.336;2022-08-02T07:50:19;3.77;;;2.40;;
30462;SDS011;17256;43.618;25.336;2022-08-02T07:56:39;2.50;;;2.30;;
30462;SDS011;17256;43.618;25.336;2022-08-02T08:02:59;4.23;;;1.93;;
30462;SDS011;17256;43.618;25.336;2022-08-02T08:05:25;3.13;;;2.40;;
30462;SDS011;17256;43.618;25.336;2022-08-02T08:07:51;2.00;;;1.90;;
30462;SDS011;17256;43.618;25.336;2022-08-02T08:10:33;2.60;;;2.10;;
30462;SDS011;17256;43.618;25.336;2022-08-02T08:17:20;2.70;;;2.07;;
30462;SDS011;17256;43.618;25.336;2022-08-02T08:19:45;2.30;;;1.97;;
30462;SDS011;17256;43.618;25.336;2022-08-02T08:22:11;2.30;;;2.20;;
30462;SDS011;17256;43.618;25.336;2022-08-02T08:24:51;2.93;;;2.00;;
30462;SDS011;17256;43.618;25.336;2022-08-02T08:27:17;2.07;;;1.97;;
30462;SDS011;17256;43.618;25.336;2022-08-02T08:29:44;2.60;;;2.00;;
30462;SDS011;17256;43.618;25.336;2022-08-02T08:36:04;2.97;;;2.60;;
30462;SDS011;17256;43.618;25.336;2022-08-02T08:38:30;2.83;;;2.63;;
30462;SDS011;17256;43.618;25.336;2022-08-02T08:40:55;2.27;;;2.10;;
30462;SDS011;17256;43.618;25.336;2022-08-02T08:46:41;3.77;;;2.00;;
30462;SDS011;17256;43.618;25.336;2022-08-02T08:49:09;2.17;;;1.97;;
30462;SDS011;17256;43.618;25.336;2022-08-02T08:51:45;3.17;;;1.70;;
30462;SDS011;17256;43.618;25.336;2022-08-02T08:54:16;4.03;;;1.77;;
30462;SDS011;17256;43.618;25.336;2022-08-02T08:56:43;2.70;;;2.10;;
30462;SDS011;17256;43.618;25.336;2022-08-02T08:59:09;1.87;;;1.77;;
30462;SDS011;17256;43.618;25.336;2022-08-02T09:01:35;2.33;;;1.60;;
30462;SDS011;17256;43.618;25.336;2022-08-02T09:04:01;4.40;;;2.93;;
30462;SDS011;17256;43.618;25.336;2022-08-02T09:06:26;2.90;;;1.97;;
30462;SDS011;17256;43.618;25.336;2022-08-02T09:08:52;4.67;;;1.97;;
30462;SDS011;17256;43.618;25.336;2022-08-02T09:11:19;2.40;;;2.20;;
30462;SDS011;17256;43.618;25.336;2022-08-02T09:13:55;2.80;;;2.10;;
30462;SDS011;17256;43.618;25.336;2022-08-02T09:16:30;2.70;;;1.60;;
30462;SDS011;17256;43.618;25.336;2022-08-02T09:19:01;1.90;;;1.80;;
30462;SDS011;17256;43.618;25.336;2022-08-02T09:21:50;1.70;;;1.43;;
30462;SDS011;17256;43.618;25.336;2022-08-02T09:27:13;1.73;;;1.63;;
30462;SDS011;17256;43.618;25.336;2022-08-02T09:29:47;1.87;;;1.77;;
30462;SDS011;17256;43.618;25.336;2022-08-02T09:32:18;2.40;;;1.70;;
30462;SDS011;17256;43.618;25.336;2022-08-02T09:34:49;3.70;;;1.30;;
30462;SDS011;17256;43.618;25.336;2022-08-02T09:37:34;1.00;;;1.00;;
30462;SDS011;17256;43.618;25.336;2022-08-02T09:46:36;1.47;;;1.37;;
30462;SDS011;17256;43.618;25.336;2022-08-02T09:52:31;1.60;;;1.50;;
30462;SDS011;17256;43.618;25.336;2022-08-02T09:55:06;2.17;;;1.40;;
30462;SDS011;17256;43.618;25.336;2022-08-02T09:57:32;1.40;;;1.20;;
30462;SDS011;17256;43.618;25.336;2022-08-02T09:59:58;1.40;;;1.30;;
30462;SDS011;17256;43.618;25.336;2022-08-02T10:02:29;2.63;;;1.30;;
30462;SDS011;17256;43.618;25.336;2022-08-02T10:04:54;1.30;;;1.20;;
30462;SDS011;17256;43.618;25.336;2022-08-02T10:07:21;1.50;;;1.40;;
30462;SDS011;17256;43.618;25.336;2022-08-02T10:15:40;2.17;;;1.70;;
30462;SDS011;17256;43.618;25.336;2022-08-02T10:18:06;1.50;;;1.40;;
30462;SDS011;17256;43.618;25.336;2022-08-02T10:20:36;2.27;;;1.80;;
30462;SDS011;17256;43.618;25.336;2022-08-02T10:23:09;1.57;;;1.47;;
30462;SDS011;17256;43.618;25.336;2022-08-02T10:28:12;1.70;;;1.60;;
30462;SDS011;17256;43.618;25.336;2022-08-02T10:30:41;1.80;;;1.60;;
30462;SDS011;17256;43.618;25.336;2022-08-02T10:33:09;1.67;;;1.30;;
30462;SDS011;17256;43.618;25.336;2022-08-02T10:35:37;1.90;;;1.60;;
30462;SDS011;17256;43.618;25.336;2022-08-02T10:38:08;2.20;;;1.40;;
30462;SDS011;17256;43.618;25.336;2022-08-02T10:40:46;2.17;;;1.87;;
30462;SDS011;17256;43.618;25.336;2022-08-02T10:46:32;2.73;;;1.60;;
30462;SDS011;17256;43.618;25.336;2022-08-02T10:57:32;1.57;;;1.47;;
30462;SDS011;17256;43.618;25.336;2022-08-02T11:02:38;7.53;;;1.80;;
30462;SDS011;17256;43.618;25.336;2022-08-02T11:05:07;2.07;;;1.50;;
30462;SDS011;17256;43.618;25.336;2022-08-02T11:19:19;10.90;;;7.57;;
30462;SDS011;17256;43.618;25.336;2022-08-02T11:25:38;2.53;;;2.17;;
30462;SDS011;17256;43.618;25.336;2022-08-02T11:28:08;3.57;;;1.80;;
30462;SDS011;17256;43.618;25.336;2022-08-02T11:30:35;2.50;;;1.60;;
30462;SDS011;17256;43.618;25.336;2022-08-02T11:33:03;1.80;;;1.70;;
30462;SDS011;17256;43.618;25.336;2022-08-02T11:50:13;1.77;;;1.67;;
30462;SDS011;17256;43.618;25.336;2022-08-02T11:52:38;4.00;;;1.43;;
30462;SDS011;17256;43.618;25.336;2022-08-02T11:55:08;1.60;;;1.50;;
30462;SDS011;17256;43.618;25.336;2022-08-02T11:57:35;1.40;;;1.30;;
30462;SDS011;17256;43.618;25.336;2022-08-02T12:00:03;1.98;;;1.88;;
30462;SDS011;17256;43.618;25.336;2022-08-02T12:02:43;1.50;;;1.40;;
30462;SDS011;17256;43.618;25.336;2022-08-02T12:05:14;1.52;;;1.42;;
30462;SDS011;17256;43.618;25.336;2022-08-02T12:10:37;2.92;;;1.52;;
30462;SDS011;17256;43.618;25.336;2022-08-02T12:13:11;1.58;;;1.38;;
30462;SDS011;17256;43.618;25.336;2022-08-02T12:15:42;1.85;;;1.75;;
30462;SDS011;17256;43.618;25.336;2022-08-02T12:20:54;1.60;;;1.50;;
30462;SDS011;17256;43.618;25.336;2022-08-02T12:23:20;3.83;;;1.60;;
30462;SDS011;17256;43.618;25.336;2022-08-02T12:25:58;2.03;;;1.50;;
30462;SDS011;17256;43.618;25.336;2022-08-02T12:28:25;2.90;;;1.57;;
30462;SDS011;17256;43.618;25.336;2022-08-02T12:30:52;1.50;;;1.40;;
30462;SDS011;17256;43.618;25.336;2022-08-02T12:33:20;2.37;;;1.57;;
30462;SDS011;17256;43.618;25.336;2022-08-02T12:36:13;1.70;;;1.60;;
30462;SDS011;17256;43.618;25.336;2022-08-02T12:38:48;3.87;;;1.47;;
30462;SDS011;17256;43.618;25.336;2022-08-02T12:41:15;2.57;;;1.70;;
30462;SDS011;17256;43.618;25.336;2022-08-02T12:43:41;1.47;;;1.37;;
30462;SDS011;17256;43.618;25.336;2022-08-02T12:46:13;2.03;;;1.47;;
30462;SDS011;17256;43.618;25.336;2022-08-02T12:52:34;2.40;;;1.83;;
30462;SDS011;17256;43.618;25.336;2022-08-02T12:55:12;1.48;;;1.38;;
30462;SDS011;17256;43.618;25.336;2022-08-02T12:57:49;2.55;;;1.35;;
30462;SDS011;17256;43.618;25.336;2022-08-02T13:00:33;2.60;;;1.60;;
30462;SDS011;17256;43.618;25.336;2022-08-02T13:05:51;1.92;;;1.33;;
30462;SDS011;17256;43.618;25.336;2022-08-02T13:08:16;1.52;;;1.45;;
30462;SDS011;17256;43.618;25.336;2022-08-02T13:10:42;2.55;;;1.30;;
30462;SDS011;17256;43.618;25.336;2022-08-02T13:16:18;1.63;;;1.52;;
30462;SDS011;17256;43.618;25.336;2022-08-02T13:18:43;1.45;;;1.27;;
30462;SDS011;17256;43.618;25.336;2022-08-02T13:27:51;1.83;;;1.50;;
30462;SDS011;17256;43.618;25.336;2022-08-02T13:34:11;1.57;;;1.47;;
30462;SDS011;17256;43.618;25.336;2022-08-02T13:36:36;1.50;;;1.35;;
30462;SDS011;17256;43.618;25.336;2022-08-02T13:39:02;1.55;;;1.42;;
30462;SDS011;17256;43.618;25.336;2022-08-02T13:50:39;1.73;;;1.63;;
30462;SDS011;17256;43.618;25.336;2022-08-02T13:53:05;3.13;;;1.38;;
30462;SDS011;17256;43.618;25.336;2022-08-02T14:02:15;1.23;;;1.23;;
30462;SDS011;17256;43.618;25.336;2022-08-02T14:04:41;3.17;;;2.97;;
30462;SDS011;17256;43.618;25.336;2022-08-02T14:07:07;1.58;;;1.48;;
30462;SDS011;17256;43.618;25.336;2022-08-02T14:09:33;2.75;;;2.45;;
30462;SDS011;17256;43.618;25.336;2022-08-02T14:12:01;1.98;;;1.88;;
30462;SDS011;17256;43.618;25.336;2022-08-02T14:14:27;2.15;;;2.03;;
30462;SDS011;17256;43.618;25.336;2022-08-02T14:16:52;3.50;;;2.05;;
30462;SDS011;17256;43.618;25.336;2022-08-02T14:19:18;2.20;;;1.85;;
30462;SDS011;17256;43.618;25.336;2022-08-02T14:21:54;5.70;;;3.17;;
30462;SDS011;17256;43.618;25.336;2022-08-02T14:24:20;3.63;;;1.80;;
30462;SDS011;17256;43.618;25.336;2022-08-02T14:26:49;4.55;;;2.00;;
30462;SDS011;17256;43.618;25.336;2022-08-02T14:29:16;1.50;;;1.42;;
30462;SDS011;17256;43.618;25.336;2022-08-02T14:31:42;2.15;;;1.85;;
30462;SDS011;17256;43.618;25.336;2022-08-02T14:34:08;1.75;;;1.65;;
30462;SDS011;17256;43.618;25.336;2022-08-02T14:36:36;1.73;;;1.63;;
30462;SDS011;17256;43.618;25.336;2022-08-02T14:46:01;1.75;;;1.65;;
30462;SDS011;17256;43.618;25.336;2022-08-02T14:48:27;1.98;;;1.63;;
30462;SDS011;17256;43.618;25.336;2022-08-02T14:50:54;2.97;;;2.78;;
30462;SDS011;17256;43.618;25.336;2022-08-02T14:57:14;1.70;;;1.60;;
30462;SDS011;17256;43.618;25.336;2022-08-02T14:59:39;1.63;;;1.60;;
30462;SDS011;17256;43.618;25.336;2022-08-02T15:02:05;1.83;;;1.73;;
30462;SDS011;17256;43.618;25.336;2022-08-02T15:04:31;2.47;;;1.80;;
30462;SDS011;17256;43.618;25.336;2022-08-02T15:06:58;3.00;;;1.70;;
30462;SDS011;17256;43.618;25.336;2022-08-02T15:09:25;3.90;;;1.63;;
30462;SDS011;17256;43.618;25.336;2022-08-02T15:11:51;2.00;;;1.90;;
30462;SDS011;17256;43.618;25.336;2022-08-02T15:23:04;2.00;;;1.90;;
30462;SDS011;17256;43.618;25.336;2022-08-02T15:25:30;2.75;;;1.65;;
30462;SDS011;17256;43.618;25.336;2022-08-02T15:27:56;1.77;;;1.67;;
30462;SDS011;17256;43.618;25.336;2022-08-02T15:30:22;2.13;;;2.03;;
30462;SDS011;17256;43.618;25.336;2022-08-02T15:32:47;2.60;;;2.13;;
30462;SDS011;17256;43.618;25.336;2022-08-02T15:38:42;1.90;;;1.80;;
30462;SDS011;17256;43.618;25.336;2022-08-02T15:41:08;3.17;;;1.90;;
30462;SDS011;17256;43.618;25.336;2022-08-02T15:43:40;3.30;;;1.70;;
30462;SDS011;17256;43.618;25.336;2022-08-02T15:46:12;2.20;;;1.90;;
30462;SDS011;17256;43.618;25.336;2022-08-02T15:48:39;2.38;;;2.10;;
30462;SDS011;17256;43.618;25.336;2022-08-02T15:54:59;2.30;;;2.15;;
30462;SDS011;17256;43.618;25.336;2022-08-02T15:57:25;2.85;;;1.77;;
30462;SDS011;17256;43.618;25.336;2022-08-02T15:59:52;1.70;;;1.60;;
30462;SDS011;17256;43.618;25.336;2022-08-02T16:02:27;2.28;;;2.08;;
30462;SDS011;17256;43.618;25.336;2022-08-02T16:04:52;5.37;;;2.13;;
30462;SDS011;17256;43.618;25.336;2022-08-02T16:07:18;3.08;;;2.10;;
30462;SDS011;17256;43.618;25.336;2022-08-02T16:09:44;5.05;;;1.90;;
30462;SDS011;17256;43.618;25.336;2022-08-02T16:12:09;2.00;;;1.90;;
30462;SDS011;17256;43.618;25.336;2022-08-02T16:17:46;2.20;;;2.03;;
30462;SDS011;17256;43.618;25.336;2022-08-02T16:20:12;4.03;;;1.92;;
30462;SDS011;17256;43.618;25.336;2022-08-02T16:25:31;2.67;;;2.00;;
30462;SDS011;17256;43.618;25.336;2022-08-02T16:27:56;2.73;;;2.20;;
30462;SDS011;17256;43.618;25.336;2022-08-02T16:38:10;2.63;;;1.73;;
30462;SDS011;17256;43.618;25.336;2022-08-02T16:40:35;2.87;;;1.83;;
30462;SDS011;17256;43.618;25.336;2022-08-02T16:43:01;2.40;;;1.70;;
30462;SDS011;17256;43.618;25.336;2022-08-02T16:49:22;2.67;;;2.23;;
30462;SDS011;17256;43.618;25.336;2022-08-02T16:51:47;1.97;;;1.87;;
30462;SDS011;17256;43.618;25.336;2022-08-02T16:54:14;2.83;;;2.37;;
30462;SDS011;17256;43.618;25.336;2022-08-02T16:59:11;2.60;;;1.93;;
30462;SDS011;17256;43.618;25.336;2022-08-02T17:01:38;2.00;;;1.90;;
30462;SDS011;17256;43.618;25.336;2022-08-02T17:11:52;4.70;;;2.37;;
30462;SDS011;17256;43.618;25.336;2022-08-02T17:14:18;2.60;;;1.63;;
30462;SDS011;17256;43.618;25.336;2022-08-02T17:16:44;3.13;;;1.70;;
30462;SDS011;17256;43.618;25.336;2022-08-02T17:19:09;2.77;;;2.57;;
30462;SDS011;17256;43.618;25.336;2022-08-02T17:25:30;3.23;;;2.93;;
30462;SDS011;17256;43.618;25.336;2022-08-02T17:27:56;3.33;;;3.07;;
30462;SDS011;17256;43.618;25.336;2022-08-02T17:30:22;2.67;;;2.47;;
30462;SDS011;17256;43.618;25.336;2022-08-02T17:38:35;5.43;;;2.97;;
30462;SDS011;17256;43.618;25.336;2022-08-02T17:41:02;3.07;;;2.90;;
30462;SDS011;17256;43.618;25.336;2022-08-02T17:43:27;3.90;;;3.10;;
30462;SDS011;17256;43.618;25.336;2022-08-02T17:45:53;3.17;;;2.97;;
30462;SDS011;17256;43.618;25.336;2022-08-02T17:52:13;3.73;;;3.43;;
30462;SDS011;17256;43.618;25.336;2022-08-02T17:54:39;3.40;;;3.10;;
30462;SDS011;17256;43.618;25.336;2022-08-02T17:57:04;3.40;;;3.20;;
30462;SDS011;17256;43.618;25.336;2022-08-02T17:59:30;3.37;;;3.17;;
30462;SDS011;17256;43.618;25.336;2022-08-02T18:01:58;3.87;;;3.57;;
30462;SDS011;17256;43.618;25.336;2022-08-02T18:04:25;3.77;;;3.23;;
30462;SDS011;17256;43.618;25.336;2022-08-02T18:06:53;3.70;;;3.17;;
30462;SDS011;17256;43.618;25.336;2022-08-02T18:09:23;3.23;;;2.93;;
30462;SDS011;17256;43.618;25.336;2022-08-02T18:11:49;5.53;;;3.43;;
30462;SDS011;17256;43.618;25.336;2022-08-02T18:14:15;4.17;;;3.40;;
30462;SDS011;17256;43.618;25.336;2022-08-02T18:16:45;5.70;;;3.20;;
30462;SDS011;17256;43.618;25.336;2022-08-02T18:19:12;3.90;;;2.93;;
30462;SDS011;17256;43.618;25.336;2022-08-02T18:21:39;2.80;;;2.57;;
30462;SDS011;17256;43.618;25.336;2022-08-02T18:24:05;7.13;;;6.57;;
30462;SDS011;17256;43.618;25.336;2022-08-02T18:26:31;2.87;;;2.53;;
30462;SDS011;17256;43.618;25.336;2022-08-02T18:28:58;4.10;;;2.40;;
30462;SDS011;17256;43.618;25.336;2022-08-02T18:31:24;2.93;;;2.70;;
30462;SDS011;17256;43.618;25.336;2022-08-02T18:33:59;3.57;;;2.93;;
30462;SDS011;17256;43.618;25.336;2022-08-02T18:36:27;4.70;;;3.10;;
30462;SDS011;17256;43.618;25.336;2022-08-02T18:38:53;2.77;;;2.40;;
30462;SDS011;17256;43.618;25.336;2022-08-02T18:41:19;2.83;;;2.40;;
30462;SDS011;17256;43.618;25.336;2022-08-02T18:43:45;2.43;;;2.30;;
30462;SDS011;17256;43.618;25.336;2022-08-02T18:46:10;2.90;;;2.60;;
30462;SDS011;17256;43.618;25.336;2022-08-02T18:48:36;3.13;;;2.93;;
30462;SDS011;17256;43.618;25.336;2022-08-02T18:51:03;2.40;;;2.20;;
30462;SDS011;17256;43.618;25.336;2022-08-02T18:53:29;3.43;;;2.67;;
30462;SDS011;17256;43.618;25.336;2022-08-02T18:55:55;5.57;;;2.57;;
30462;SDS011;17256;43.618;25.336;2022-08-02T18:58:20;2.90;;;2.70;;
30462;SDS011;17256;43.618;25.336;2022-08-02T19:00:46;2.40;;;2.20;;
30462;SDS011;17256;43.618;25.336;2022-08-02T19:03:13;2.07;;;1.93;;
30462;SDS011;17256;43.618;25.336;2022-08-02T19:05:39;3.33;;;3.13;;
30462;SDS011;17256;43.618;25.336;2022-08-02T19:08:04;2.60;;;2.43;;
30462;SDS011;17256;43.618;25.336;2022-08-02T19:10:31;3.70;;;2.73;;
30462;SDS011;17256;43.618;25.336;2022-08-02T19:13:00;2.97;;;2.43;;
30462;SDS011;17256;43.618;25.336;2022-08-02T19:15:26;2.80;;;2.60;;
30462;SDS011;17256;43.618;25.336;2022-08-02T19:18:11;6.33;;;2.63;;
30462;SDS011;17256;43.618;25.336;2022-08-02T19:20:38;2.70;;;2.50;;
30462;SDS011;17256;43.618;25.336;2022-08-02T19:23:03;2.43;;;2.23;;
30462;SDS011;17256;43.618;25.336;2022-08-02T19:25:33;2.50;;;2.30;;
30462;SDS011;17256;43.618;25.336;2022-08-02T19:28:00;2.40;;;2.20;;
30462;SDS011;17256;43.618;25.336;2022-08-02T19:34:21;2.17;;;2.07;;
30462;SDS011;17256;43.618;25.336;2022-08-02T19:36:46;3.10;;;2.10;;
30462;SDS011;17256;43.618;25.336;2022-08-02T19:39:14;2.50;;;2.30;;
30462;SDS011;17256;43.618;25.336;2022-08-02T19:41:42;2.70;;;2.47;;
30462;SDS011;17256;43.618;25.336;2022-08-02T19:44:07;3.30;;;2.20;;
30462;SDS011;17256;43.618;25.336;2022-08-02T19:46:33;3.37;;;3.00;;
30462;SDS011;17256;43.618;25.336;2022-08-02T19:48:59;3.37;;;2.50;;
30462;SDS011;17256;43.618;25.336;2022-08-02T19:51:25;3.20;;;2.70;;
30462;SDS011;17256;43.618;25.336;2022-08-02T19:53:53;3.47;;;2.60;;
30462;SDS011;17256;43.618;25.336;2022-08-02T19:56:19;6.50;;;5.60;;
30462;SDS011;17256;43.618;25.336;2022-08-02T20:02:39;9.20;;;8.30;;
30462;SDS011;17256;43.618;25.336;2022-08-02T20:05:05;8.70;;;6.97;;
30462;SDS011;17256;43.618;25.336;2022-08-02T20:07:31;5.73;;;5.23;;
30462;SDS011;17256;43.618;25.336;2022-08-02T20:13:51;4.37;;;3.17;;
30462;SDS011;17256;43.618;25.336;2022-08-02T20:20:11;7.60;;;5.67;;
30462;SDS011;17256;43.618;25.336;2022-08-02T20:22:37;6.67;;;6.07;;
30462;SDS011;17256;43.618;25.336;2022-08-02T20:25:21;8.70;;;7.80;;
30462;SDS011;17256;43.618;25.336;2022-08-02T20:27:48;5.20;;;4.80;;
30462;SDS011;17256;43.618;25.336;2022-08-02T20:30:17;6.20;;;3.37;;
30462;SDS011;17256;43.618;25.336;2022-08-02T20:32:49;3.93;;;3.53;;
30462;SDS011;17256;43.618;25.336;2022-08-02T20:35:15;3.67;;;3.37;;
30462;SDS011;17256;43.618;25.336;2022-08-02T20:37:40;3.73;;;3.20;;
30462;SDS011;17256;43.618;25.336;2022-08-02T20:40:06;3.40;;;3.10;;
30462;SDS011;17256;43.618;25.336;2022-08-02T20:42:32;3.60;;;3.30;;
30462;SDS011;17256;43.618;25.336;2022-08-02T20:45:04;4.23;;;3.60;;
30462;SDS011;17256;43.618;25.336;2022-08-02T20:47:30;2.80;;;2.57;;
30462;SDS011;17256;43.618;25.336;2022-08-02T20:49:55;2.60;;;2.40;;
30462;SDS011;17256;43.618;25.336;2022-08-02T20:56:35;2.53;;;2.33;;
30462;SDS011;17256;43.618;25.336;2022-08-02T20:59:01;4.07;;;2.43;;
30462;SDS011;17256;43.618;25.336;2022-08-02T21:01:27;2.90;;;2.10;;
30462;SDS011;17256;43.618;25.336;2022-08-02T21:07:47;2.27;;;2.10;;
30462;SDS011;17256;43.618;25.336;2022-08-02T21:14:08;1.83;;;1.73;;
30462;SDS011;17256;43.618;25.336;2022-08-02T21:16:33;4.60;;;1.80;;
30462;SDS011;17256;43.618;25.336;2022-08-02T21:19:05;5.93;;;2.20;;
30462;SDS011;17256;43.618;25.336;2022-08-02T21:25:25;2.23;;;2.13;;
30462;SDS011;17256;43.618;25.336;2022-08-02T21:27:51;1.80;;;1.70;;
30462;SDS011;17256;43.618;25.336;2022-08-02T21:30:17;3.03;;;2.10;;
30462;SDS011;17256;43.618;25.336;2022-08-02T21:32:46;2.40;;;2.20;;
30462;SDS011;17256;43.618;25.336;2022-08-02T21:35:20;3.63;;;2.73;;
30462;SDS011;17256;43.618;25.336;2022-08-02T21:41:41;2.07;;;1.97;;
30462;SDS011;17256;43.618;25.336;2022-08-02T21:44:06;2.87;;;2.40;;
30462;SDS011;17256;43.618;25.336;2022-08-02T21:46:33;2.33;;;2.13;;
30462;SDS011;17256;43.618;25.336;2022-08-02T21:54:55;3.13;;;2.60;;
30462;SDS011;17256;43.618;25.336;2022-08-02T22:07:11;2.67;;;2.43;;
30462;SDS011;17256;43.618;25.336;2022-08-02T22:09:37;2.77;;;2.20;;
30462;SDS011;17256;43.618;25.336;2022-08-02T22:18:52;3.60;;;2.17;;
30462;SDS011;17256;43.618;25.336;2022-08-02T22:24:32;5.63;;;2.70;;
